sensor_id;sensor_type;location;lat;lon;timestamp;P1;durP1;ratioP1;P2;durP2;ratioP2
18224;SDS011;9237;48.590;8.854;2023-01-19T00:01:43;1.10;;;1.10;;
18224;SDS011;9237;48.590;8.854;2023-01-19T00:04:09;1.17;;;1.17;;
18224;SDS011;9237;48.590;8.854;2023-01-19T00:06:36;1.10;;;1.10;;
18224;SDS011;9237;48.590;8.854;2023-01-19T00:09:03;1.10;;;1.10;;
18224;SDS011;9237;48.590;8.854;2023-01-19T00:11:31;1.10;;;1.10;;
18224;SDS011;9237;48.590;8.854;2023-01-19T00:13:58;1.20;;;1.20;;
18224;SDS011;9237;48.590;8.854;2023-01-19T00:16:25;1.37;;;1.37;;
18224;SDS011;9237;48.590;8.854;2023-01-19T00:18:52;1.10;;;1.10;;
18224;SDS011;9237;48.590;8.854;2023-01-19T00:21:19;1.10;;;1.10;;
18224;SDS011;9237;48.590;8.854;2023-01-19T00:23:46;1.40;;;1.40;;
18224;SDS011;9237;48.590;8.854;2023-01-19T00:26:16;1.10;;;1.10;;
18224;SDS011;9237;48.590;8.854;2023-01-19T00:28:47;1.10;;;1.10;;
18224;SDS011;9237;48.590;8.854;2023-01-19T00:31:14;1.20;;;1.20;;
18224;SDS011;9237;48.590;8.854;2023-01-19T00:33:44;1.20;;;1.20;;
18224;SDS011;9237;48.590;8.854;2023-01-19T00:36:12;1.20;;;1.20;;
18224;SDS011;9237;48.590;8.854;2023-01-19T00:38:39;1.20;;;1.20;;
18224;SDS011;9237;48.590;8.854;2023-01-19T00:41:06;1.20;;;1.20;;
18224;SDS011;9237;48.590;8.854;2023-01-19T00:43:33;1.17;;;1.17;;
18224;SDS011;9237;48.590;8.854;2023-01-19T00:46:00;1.10;;;1.10;;
18224;SDS011;9237;48.590;8.854;2023-01-19T00:48:27;1.10;;;1.10;;
18224;SDS011;9237;48.590;8.854;2023-01-19T00:50:54;1.10;;;1.10;;
18224;SDS011;9237;48.590;8.854;2023-01-19T00:53:21;1.00;;;1.00;;
18224;SDS011;9237;48.590;8.854;2023-01-19T00:55:48;1.10;;;1.10;;
18224;SDS011;9237;48.590;8.854;2023-01-19T00:58:15;1.10;;;1.10;;
18224;SDS011;9237;48.590;8.854;2023-01-19T01:00:41;1.20;;;1.20;;
18224;SDS011;9237;48.590;8.854;2023-01-19T01:03:10;1.10;;;1.10;;
18224;SDS011;9237;48.590;8.854;2023-01-19T01:05:38;1.10;;;1.10;;
18224;SDS011;9237;48.590;8.854;2023-01-19T01:08:06;1.10;;;1.10;;
18224;SDS011;9237;48.590;8.854;2023-01-19T01:10:33;1.10;;;1.10;;
18224;SDS011;9237;48.590;8.854;2023-01-19T01:13:00;1.20;;;1.20;;
18224;SDS011;9237;48.590;8.854;2023-01-19T01:15:26;1.10;;;1.10;;
18224;SDS011;9237;48.590;8.854;2023-01-19T01:17:54;1.10;;;1.10;;
18224;SDS011;9237;48.590;8.854;2023-01-19T01:20:23;1.20;;;1.20;;
18224;SDS011;9237;48.590;8.854;2023-01-19T01:22:52;1.03;;;1.03;;
18224;SDS011;9237;48.590;8.854;2023-01-19T01:25:20;1.10;;;1.10;;
18224;SDS011;9237;48.590;8.854;2023-01-19T01:27:49;1.10;;;1.10;;
18224;SDS011;9237;48.590;8.854;2023-01-19T01:30:16;1.20;;;1.20;;
18224;SDS011;9237;48.590;8.854;2023-01-19T01:32:43;1.10;;;1.10;;
18224;SDS011;9237;48.590;8.854;2023-01-19T01:35:11;1.20;;;1.20;;
18224;SDS011;9237;48.590;8.854;2023-01-19T01:37:39;1.10;;;1.10;;
18224;SDS011;9237;48.590;8.854;2023-01-19T01:40:09;1.17;;;1.17;;
18224;SDS011;9237;48.590;8.854;2023-01-19T01:42:38;1.20;;;1.20;;
18224;SDS011;9237;48.590;8.854;2023-01-19T01:45:06;1.10;;;1.10;;
18224;SDS011;9237;48.590;8.854;2023-01-19T01:47:52;1.20;;;1.20;;
18224;SDS011;9237;48.590;8.854;2023-01-19T01:50:21;1.17;;;1.17;;
18224;SDS011;9237;48.590;8.854;2023-01-19T01:52:51;1.20;;;1.20;;
18224;SDS011;9237;48.590;8.854;2023-01-19T01:55:22;1.10;;;1.10;;
18224;SDS011;9237;48.590;8.854;2023-01-19T01:57:53;1.20;;;1.20;;
18224;SDS011;9237;48.590;8.854;2023-01-19T02:00:24;1.00;;;1.00;;
18224;SDS011;9237;48.590;8.854;2023-01-19T02:02:50;1.10;;;1.10;;
18224;SDS011;9237;48.590;8.854;2023-01-19T02:05:20;1.20;;;1.20;;
18224;SDS011;9237;48.590;8.854;2023-01-19T02:07:52;1.10;;;1.10;;
18224;SDS011;9237;48.590;8.854;2023-01-19T02:10:40;1.10;;;1.10;;
18224;SDS011;9237;48.590;8.854;2023-01-19T02:13:25;1.10;;;1.10;;
18224;SDS011;9237;48.590;8.854;2023-01-19T02:15:55;1.10;;;1.10;;
18224;SDS011;9237;48.590;8.854;2023-01-19T02:18:23;1.20;;;1.20;;
18224;SDS011;9237;48.590;8.854;2023-01-19T02:20:56;1.10;;;1.10;;
18224;SDS011;9237;48.590;8.854;2023-01-19T02:23:43;1.20;;;1.20;;
18224;SDS011;9237;48.590;8.854;2023-01-19T02:26:12;1.20;;;1.20;;
18224;SDS011;9237;48.590;8.854;2023-01-19T02:28:43;1.20;;;1.20;;
18224;SDS011;9237;48.590;8.854;2023-01-19T02:31:14;1.13;;;1.13;;
18224;SDS011;9237;48.590;8.854;2023-01-19T02:33:41;1.20;;;1.20;;
18224;SDS011;9237;48.590;8.854;2023-01-19T02:36:08;1.10;;;1.10;;
18224;SDS011;9237;48.590;8.854;2023-01-19T02:38:37;1.30;;;1.30;;
18224;SDS011;9237;48.590;8.854;2023-01-19T02:41:06;1.10;;;1.10;;
18224;SDS011;9237;48.590;8.854;2023-01-19T02:43:36;1.10;;;1.10;;
18224;SDS011;9237;48.590;8.854;2023-01-19T02:46:03;1.20;;;1.20;;
18224;SDS011;9237;48.590;8.854;2023-01-19T02:48:31;1.10;;;1.10;;
18224;SDS011;9237;48.590;8.854;2023-01-19T02:50:58;1.10;;;1.10;;
18224;SDS011;9237;48.590;8.854;2023-01-19T02:56:36;1.20;;;1.20;;
18224;SDS011;9237;48.590;8.854;2023-01-19T02:59:29;1.20;;;1.20;;
18224;SDS011;9237;48.590;8.854;2023-01-19T03:02:15;1.20;;;1.20;;
18224;SDS011;9237;48.590;8.854;2023-01-19T03:04:58;1.10;;;1.10;;
18224;SDS011;9237;48.590;8.854;2023-01-19T03:07:47;1.20;;;1.20;;
18224;SDS011;9237;48.590;8.854;2023-01-19T03:10:22;1.30;;;1.30;;
18224;SDS011;9237;48.590;8.854;2023-01-19T03:12:56;1.30;;;1.30;;
18224;SDS011;9237;48.590;8.854;2023-01-19T03:15:29;1.20;;;1.20;;
18224;SDS011;9237;48.590;8.854;2023-01-19T03:18:02;1.20;;;1.20;;
18224;SDS011;9237;48.590;8.854;2023-01-19T03:20:33;1.10;;;1.10;;
18224;SDS011;9237;48.590;8.854;2023-01-19T03:23:02;1.20;;;1.20;;
18224;SDS011;9237;48.590;8.854;2023-01-19T03:25:34;1.50;;;1.50;;
18224;SDS011;9237;48.590;8.854;2023-01-19T03:28:06;1.30;;;1.30;;
18224;SDS011;9237;48.590;8.854;2023-01-19T03:30:33;1.30;;;1.30;;
18224;SDS011;9237;48.590;8.854;2023-01-19T03:33:04;1.20;;;1.20;;
18224;SDS011;9237;48.590;8.854;2023-01-19T03:35:36;1.20;;;1.20;;
18224;SDS011;9237;48.590;8.854;2023-01-19T03:38:08;1.20;;;1.20;;
18224;SDS011;9237;48.590;8.854;2023-01-19T03:40:39;1.20;;;1.20;;
18224;SDS011;9237;48.590;8.854;2023-01-19T03:43:08;1.30;;;1.30;;
18224;SDS011;9237;48.590;8.854;2023-01-19T03:45:36;1.10;;;1.10;;
18224;SDS011;9237;48.590;8.854;2023-01-19T03:48:04;1.20;;;1.20;;
18224;SDS011;9237;48.590;8.854;2023-01-19T03:50:32;1.10;;;1.10;;
18224;SDS011;9237;48.590;8.854;2023-01-19T03:52:59;1.20;;;1.20;;
18224;SDS011;9237;48.590;8.854;2023-01-19T03:55:27;1.20;;;1.20;;
18224;SDS011;9237;48.590;8.854;2023-01-19T03:57:54;1.30;;;1.30;;
18224;SDS011;9237;48.590;8.854;2023-01-19T04:00:22;1.20;;;1.20;;
18224;SDS011;9237;48.590;8.854;2023-01-19T04:02:50;1.20;;;1.20;;
18224;SDS011;9237;48.590;8.854;2023-01-19T04:05:16;1.20;;;1.20;;
18224;SDS011;9237;48.590;8.854;2023-01-19T04:07:44;1.30;;;1.30;;
18224;SDS011;9237;48.590;8.854;2023-01-19T04:10:13;1.20;;;1.20;;
18224;SDS011;9237;48.590;8.854;2023-01-19T04:12:41;1.10;;;1.10;;
18224;SDS011;9237;48.590;8.854;2023-01-19T04:15:08;1.20;;;1.20;;
18224;SDS011;9237;48.590;8.854;2023-01-19T04:17:36;1.20;;;1.20;;
18224;SDS011;9237;48.590;8.854;2023-01-19T04:20:03;1.17;;;1.17;;
18224;SDS011;9237;48.590;8.854;2023-01-19T04:22:31;1.10;;;1.10;;
18224;SDS011;9237;48.590;8.854;2023-01-19T04:24:58;1.20;;;1.20;;
18224;SDS011;9237;48.590;8.854;2023-01-19T04:27:25;1.20;;;1.20;;
18224;SDS011;9237;48.590;8.854;2023-01-19T04:29:52;1.20;;;1.20;;
18224;SDS011;9237;48.590;8.854;2023-01-19T04:32:19;1.23;;;1.23;;
18224;SDS011;9237;48.590;8.854;2023-01-19T04:34:47;1.10;;;1.10;;
18224;SDS011;9237;48.590;8.854;2023-01-19T04:37:14;1.20;;;1.20;;
18224;SDS011;9237;48.590;8.854;2023-01-19T04:39:41;1.20;;;1.20;;
18224;SDS011;9237;48.590;8.854;2023-01-19T04:42:08;1.10;;;1.10;;
18224;SDS011;9237;48.590;8.854;2023-01-19T04:44:35;1.10;;;1.10;;
18224;SDS011;9237;48.590;8.854;2023-01-19T04:47:02;1.10;;;1.10;;
18224;SDS011;9237;48.590;8.854;2023-01-19T04:49:28;1.20;;;1.20;;
18224;SDS011;9237;48.590;8.854;2023-01-19T04:51:57;1.00;;;1.00;;
18224;SDS011;9237;48.590;8.854;2023-01-19T04:54:23;1.20;;;1.20;;
18224;SDS011;9237;48.590;8.854;2023-01-19T04:56:51;1.30;;;1.30;;
18224;SDS011;9237;48.590;8.854;2023-01-19T04:59:18;1.20;;;1.20;;
18224;SDS011;9237;48.590;8.854;2023-01-19T05:01:45;1.07;;;1.07;;
18224;SDS011;9237;48.590;8.854;2023-01-19T05:04:12;1.17;;;1.17;;
18224;SDS011;9237;48.590;8.854;2023-01-19T05:06:39;1.20;;;1.20;;
18224;SDS011;9237;48.590;8.854;2023-01-19T05:09:07;1.20;;;1.20;;
18224;SDS011;9237;48.590;8.854;2023-01-19T05:11:37;1.20;;;1.20;;
18224;SDS011;9237;48.590;8.854;2023-01-19T05:14:03;1.20;;;1.20;;
18224;SDS011;9237;48.590;8.854;2023-01-19T05:16:30;1.20;;;1.20;;
18224;SDS011;9237;48.590;8.854;2023-01-19T05:18:58;1.20;;;1.20;;
18224;SDS011;9237;48.590;8.854;2023-01-19T05:21:25;1.20;;;1.20;;
18224;SDS011;9237;48.590;8.854;2023-01-19T05:23:52;1.20;;;1.20;;
18224;SDS011;9237;48.590;8.854;2023-01-19T05:26:20;1.10;;;1.10;;
18224;SDS011;9237;48.590;8.854;2023-01-19T05:28:47;1.20;;;1.20;;
18224;SDS011;9237;48.590;8.854;2023-01-19T05:31:14;1.20;;;1.20;;
18224;SDS011;9237;48.590;8.854;2023-01-19T05:33:41;1.20;;;1.20;;
18224;SDS011;9237;48.590;8.854;2023-01-19T05:36:08;1.10;;;1.10;;
18224;SDS011;9237;48.590;8.854;2023-01-19T05:38:35;1.20;;;1.20;;
18224;SDS011;9237;48.590;8.854;2023-01-19T05:41:01;1.10;;;1.10;;
18224;SDS011;9237;48.590;8.854;2023-01-19T05:43:30;1.20;;;1.20;;
18224;SDS011;9237;48.590;8.854;2023-01-19T05:45:56;1.10;;;1.10;;
18224;SDS011;9237;48.590;8.854;2023-01-19T05:48:23;1.10;;;1.10;;
18224;SDS011;9237;48.590;8.854;2023-01-19T05:50:50;1.20;;;1.20;;
18224;SDS011;9237;48.590;8.854;2023-01-19T05:53:21;1.50;;;1.50;;
18224;SDS011;9237;48.590;8.854;2023-01-19T05:55:48;1.07;;;1.07;;
18224;SDS011;9237;48.590;8.854;2023-01-19T05:58:15;1.20;;;1.20;;
18224;SDS011;9237;48.590;8.854;2023-01-19T06:00:43;1.30;;;1.30;;
18224;SDS011;9237;48.590;8.854;2023-01-19T06:03:10;1.20;;;1.20;;
18224;SDS011;9237;48.590;8.854;2023-01-19T06:05:37;1.20;;;1.20;;
18224;SDS011;9237;48.590;8.854;2023-01-19T06:08:04;1.30;;;1.30;;
18224;SDS011;9237;48.590;8.854;2023-01-19T06:10:31;1.20;;;1.20;;
18224;SDS011;9237;48.590;8.854;2023-01-19T06:12:58;1.30;;;1.30;;
18224;SDS011;9237;48.590;8.854;2023-01-19T06:15:25;1.20;;;1.20;;
18224;SDS011;9237;48.590;8.854;2023-01-19T06:17:53;1.23;;;1.23;;
18224;SDS011;9237;48.590;8.854;2023-01-19T06:20:20;1.20;;;1.20;;
18224;SDS011;9237;48.590;8.854;2023-01-19T06:22:47;1.30;;;1.30;;
18224;SDS011;9237;48.590;8.854;2023-01-19T06:25:14;1.20;;;1.20;;
18224;SDS011;9237;48.590;8.854;2023-01-19T06:27:42;1.30;;;1.30;;
18224;SDS011;9237;48.590;8.854;2023-01-19T06:30:09;1.30;;;1.30;;
18224;SDS011;9237;48.590;8.854;2023-01-19T06:32:37;1.50;;;1.50;;
18224;SDS011;9237;48.590;8.854;2023-01-19T06:35:05;1.20;;;1.20;;
18224;SDS011;9237;48.590;8.854;2023-01-19T06:37:33;1.00;;;1.00;;
18224;SDS011;9237;48.590;8.854;2023-01-19T06:39:59;1.30;;;1.30;;
18224;SDS011;9237;48.590;8.854;2023-01-19T06:42:26;1.20;;;1.20;;
18224;SDS011;9237;48.590;8.854;2023-01-19T06:44:53;1.13;;;1.13;;
18224;SDS011;9237;48.590;8.854;2023-01-19T06:47:20;1.20;;;1.20;;
18224;SDS011;9237;48.590;8.854;2023-01-19T06:49:47;1.20;;;1.20;;
18224;SDS011;9237;48.590;8.854;2023-01-19T06:52:15;1.30;;;1.30;;
18224;SDS011;9237;48.590;8.854;2023-01-19T06:54:44;1.20;;;1.20;;
18224;SDS011;9237;48.590;8.854;2023-01-19T06:57:11;1.43;;;1.43;;
18224;SDS011;9237;48.590;8.854;2023-01-19T06:59:38;1.20;;;1.20;;
18224;SDS011;9237;48.590;8.854;2023-01-19T07:02:05;1.20;;;1.20;;
18224;SDS011;9237;48.590;8.854;2023-01-19T07:04:32;1.20;;;1.20;;
18224;SDS011;9237;48.590;8.854;2023-01-19T07:06:58;1.20;;;1.20;;
18224;SDS011;9237;48.590;8.854;2023-01-19T07:09:27;1.20;;;1.20;;
18224;SDS011;9237;48.590;8.854;2023-01-19T07:11:53;1.30;;;1.30;;
18224;SDS011;9237;48.590;8.854;2023-01-19T07:14:20;1.10;;;1.10;;
18224;SDS011;9237;48.590;8.854;2023-01-19T07:16:47;1.10;;;1.10;;
18224;SDS011;9237;48.590;8.854;2023-01-19T07:19:14;1.20;;;1.20;;
18224;SDS011;9237;48.590;8.854;2023-01-19T07:21:40;1.30;;;1.30;;
18224;SDS011;9237;48.590;8.854;2023-01-19T07:24:07;1.20;;;1.20;;
18224;SDS011;9237;48.590;8.854;2023-01-19T07:26:35;1.30;;;1.30;;
18224;SDS011;9237;48.590;8.854;2023-01-19T07:29:02;1.50;;;1.50;;
18224;SDS011;9237;48.590;8.854;2023-01-19T07:31:29;1.30;;;1.30;;
18224;SDS011;9237;48.590;8.854;2023-01-19T07:33:56;1.20;;;1.20;;
18224;SDS011;9237;48.590;8.854;2023-01-19T07:36:24;1.40;;;1.40;;
18224;SDS011;9237;48.590;8.854;2023-01-19T07:38:50;1.20;;;1.20;;
18224;SDS011;9237;48.590;8.854;2023-01-19T07:41:17;1.30;;;1.30;;
18224;SDS011;9237;48.590;8.854;2023-01-19T07:43:45;1.10;;;1.10;;
18224;SDS011;9237;48.590;8.854;2023-01-19T07:46:15;1.30;;;1.30;;
18224;SDS011;9237;48.590;8.854;2023-01-19T07:48:42;1.20;;;1.20;;
18224;SDS011;9237;48.590;8.854;2023-01-19T07:51:09;1.20;;;1.20;;
18224;SDS011;9237;48.590;8.854;2023-01-19T07:53:41;1.20;;;1.20;;
18224;SDS011;9237;48.590;8.854;2023-01-19T07:56:08;1.20;;;1.20;;
18224;SDS011;9237;48.590;8.854;2023-01-19T07:58:35;1.20;;;1.20;;
18224;SDS011;9237;48.590;8.854;2023-01-19T08:01:05;1.17;;;1.17;;
18224;SDS011;9237;48.590;8.854;2023-01-19T08:03:33;1.20;;;1.20;;
18224;SDS011;9237;48.590;8.854;2023-01-19T08:06:00;1.13;;;1.13;;
18224;SDS011;9237;48.590;8.854;2023-01-19T08:08:29;1.20;;;1.20;;
18224;SDS011;9237;48.590;8.854;2023-01-19T08:10:56;1.10;;;1.10;;
18224;SDS011;9237;48.590;8.854;2023-01-19T08:13:23;1.10;;;1.10;;
18224;SDS011;9237;48.590;8.854;2023-01-19T08:15:50;1.20;;;1.20;;
18224;SDS011;9237;48.590;8.854;2023-01-19T08:18:19;1.20;;;1.20;;
18224;SDS011;9237;48.590;8.854;2023-01-19T08:20:46;1.30;;;1.30;;
18224;SDS011;9237;48.590;8.854;2023-01-19T08:23:13;1.20;;;1.20;;
18224;SDS011;9237;48.590;8.854;2023-01-19T08:25:42;1.20;;;1.20;;
18224;SDS011;9237;48.590;8.854;2023-01-19T08:28:10;1.17;;;1.17;;
18224;SDS011;9237;48.590;8.854;2023-01-19T08:30:38;1.10;;;1.10;;
18224;SDS011;9237;48.590;8.854;2023-01-19T08:33:07;1.00;;;1.00;;
18224;SDS011;9237;48.590;8.854;2023-01-19T08:35:36;1.10;;;1.10;;
18224;SDS011;9237;48.590;8.854;2023-01-19T08:38:05;1.20;;;1.20;;
18224;SDS011;9237;48.590;8.854;2023-01-19T08:40:33;1.20;;;1.20;;
18224;SDS011;9237;48.590;8.854;2023-01-19T08:43:02;1.20;;;1.20;;
18224;SDS011;9237;48.590;8.854;2023-01-19T08:45:31;1.10;;;1.10;;
18224;SDS011;9237;48.590;8.854;2023-01-19T08:47:59;1.20;;;1.20;;
18224;SDS011;9237;48.590;8.854;2023-01-19T08:50:26;1.03;;;1.03;;
18224;SDS011;9237;48.590;8.854;2023-01-19T08:52:55;1.20;;;1.20;;
18224;SDS011;9237;48.590;8.854;2023-01-19T08:55:23;1.10;;;1.10;;
18224;SDS011;9237;48.590;8.854;2023-01-19T08:57:50;1.20;;;1.20;;
18224;SDS011;9237;48.590;8.854;2023-01-19T09:00:18;1.10;;;1.10;;
18224;SDS011;9237;48.590;8.854;2023-01-19T09:02:45;1.00;;;1.00;;
18224;SDS011;9237;48.590;8.854;2023-01-19T09:05:13;1.10;;;1.10;;
18224;SDS011;9237;48.590;8.854;2023-01-19T09:07:40;1.10;;;1.10;;
18224;SDS011;9237;48.590;8.854;2023-01-19T09:10:10;1.10;;;1.10;;
18224;SDS011;9237;48.590;8.854;2023-01-19T09:12:37;1.00;;;1.00;;
18224;SDS011;9237;48.590;8.854;2023-01-19T09:15:04;1.20;;;1.20;;
18224;SDS011;9237;48.590;8.854;2023-01-19T09:17:32;1.00;;;1.00;;
18224;SDS011;9237;48.590;8.854;2023-01-19T09:19:59;1.07;;;1.07;;
18224;SDS011;9237;48.590;8.854;2023-01-19T09:22:26;1.10;;;1.10;;
18224;SDS011;9237;48.590;8.854;2023-01-19T09:24:52;1.00;;;1.00;;
18224;SDS011;9237;48.590;8.854;2023-01-19T09:27:20;1.00;;;1.00;;
18224;SDS011;9237;48.590;8.854;2023-01-19T09:29:47;1.10;;;1.10;;
18224;SDS011;9237;48.590;8.854;2023-01-19T09:32:16;1.03;;;1.03;;
18224;SDS011;9237;48.590;8.854;2023-01-19T09:34:43;1.00;;;1.00;;
18224;SDS011;9237;48.590;8.854;2023-01-19T09:37:10;0.93;;;0.93;;
18224;SDS011;9237;48.590;8.854;2023-01-19T09:39:37;1.00;;;1.00;;
18224;SDS011;9237;48.590;8.854;2023-01-19T09:42:05;1.00;;;1.00;;
18224;SDS011;9237;48.590;8.854;2023-01-19T09:44:38;1.00;;;1.00;;
18224;SDS011;9237;48.590;8.854;2023-01-19T09:47:12;1.10;;;1.10;;
18224;SDS011;9237;48.590;8.854;2023-01-19T09:49:40;0.90;;;0.90;;
18224;SDS011;9237;48.590;8.854;2023-01-19T09:52:10;1.00;;;1.00;;
18224;SDS011;9237;48.590;8.854;2023-01-19T09:54:40;1.00;;;1.00;;
18224;SDS011;9237;48.590;8.854;2023-01-19T09:57:11;1.10;;;1.10;;
18224;SDS011;9237;48.590;8.854;2023-01-19T09:59:40;1.00;;;1.00;;
18224;SDS011;9237;48.590;8.854;2023-01-19T10:02:26;1.00;;;1.00;;
18224;SDS011;9237;48.590;8.854;2023-01-19T10:05:00;0.90;;;0.90;;
18224;SDS011;9237;48.590;8.854;2023-01-19T10:07:31;1.10;;;1.10;;
18224;SDS011;9237;48.590;8.854;2023-01-19T10:10:11;1.10;;;1.10;;
18224;SDS011;9237;48.590;8.854;2023-01-19T10:12:45;1.10;;;1.10;;
18224;SDS011;9237;48.590;8.854;2023-01-19T10:15:24;1.00;;;1.00;;
18224;SDS011;9237;48.590;8.854;2023-01-19T10:18:01;1.10;;;1.10;;
18224;SDS011;9237;48.590;8.854;2023-01-19T10:20:37;1.10;;;1.10;;
18224;SDS011;9237;48.590;8.854;2023-01-19T10:23:14;1.00;;;1.00;;
18224;SDS011;9237;48.590;8.854;2023-01-19T10:25:47;1.10;;;1.10;;
18224;SDS011;9237;48.590;8.854;2023-01-19T10:28:14;1.10;;;1.10;;
18224;SDS011;9237;48.590;8.854;2023-01-19T10:30:46;1.00;;;1.00;;
18224;SDS011;9237;48.590;8.854;2023-01-19T10:33:13;1.10;;;1.10;;
18224;SDS011;9237;48.590;8.854;2023-01-19T10:35:40;1.00;;;1.00;;
18224;SDS011;9237;48.590;8.854;2023-01-19T10:38:10;1.00;;;1.00;;
18224;SDS011;9237;48.590;8.854;2023-01-19T10:40:43;0.90;;;0.90;;
18224;SDS011;9237;48.590;8.854;2023-01-19T10:46:06;0.90;;;0.90;;
18224;SDS011;9237;48.590;8.854;2023-01-19T10:48:41;1.00;;;1.00;;
18224;SDS011;9237;48.590;8.854;2023-01-19T10:51:09;0.90;;;0.90;;
18224;SDS011;9237;48.590;8.854;2023-01-19T10:53:36;1.00;;;1.00;;
18224;SDS011;9237;48.590;8.854;2023-01-19T10:56:10;0.90;;;0.90;;
18224;SDS011;9237;48.590;8.854;2023-01-19T10:58:39;1.00;;;1.00;;
18224;SDS011;9237;48.590;8.854;2023-01-19T11:01:14;1.00;;;1.00;;
18224;SDS011;9237;48.590;8.854;2023-01-19T11:03:43;0.90;;;0.90;;
18224;SDS011;9237;48.590;8.854;2023-01-19T11:06:21;0.97;;;0.97;;
18224;SDS011;9237;48.590;8.854;2023-01-19T11:08:50;1.00;;;1.00;;
18224;SDS011;9237;48.590;8.854;2023-01-19T11:11:19;1.00;;;1.00;;
18224;SDS011;9237;48.590;8.854;2023-01-19T11:14:01;1.00;;;1.00;;
18224;SDS011;9237;48.590;8.854;2023-01-19T11:16:33;1.00;;;1.00;;
18224;SDS011;9237;48.590;8.854;2023-01-19T11:19:02;1.00;;;1.00;;
18224;SDS011;9237;48.590;8.854;2023-01-19T11:21:29;1.00;;;1.00;;
18224;SDS011;9237;48.590;8.854;2023-01-19T11:23:58;1.00;;;1.00;;
18224;SDS011;9237;48.590;8.854;2023-01-19T11:26:31;0.90;;;0.90;;
18224;SDS011;9237;48.590;8.854;2023-01-19T11:29:00;1.00;;;1.00;;
18224;SDS011;9237;48.590;8.854;2023-01-19T11:31:29;1.00;;;1.00;;
18224;SDS011;9237;48.590;8.854;2023-01-19T11:34:00;1.00;;;1.00;;
18224;SDS011;9237;48.590;8.854;2023-01-19T11:36:29;0.97;;;0.97;;
18224;SDS011;9237;48.590;8.854;2023-01-19T11:38:58;0.90;;;0.90;;
18224;SDS011;9237;48.590;8.854;2023-01-19T11:41:29;1.00;;;1.00;;
18224;SDS011;9237;48.590;8.854;2023-01-19T11:44:00;0.97;;;0.97;;
18224;SDS011;9237;48.590;8.854;2023-01-19T11:46:36;0.80;;;0.80;;
18224;SDS011;9237;48.590;8.854;2023-01-19T11:49:19;0.90;;;0.90;;
18224;SDS011;9237;48.590;8.854;2023-01-19T11:51:54;1.00;;;1.00;;
18224;SDS011;9237;48.590;8.854;2023-01-19T11:54:28;0.90;;;0.90;;
18224;SDS011;9237;48.590;8.854;2023-01-19T11:56:59;1.00;;;1.00;;
18224;SDS011;9237;48.590;8.854;2023-01-19T11:59:27;0.90;;;0.90;;
18224;SDS011;9237;48.590;8.854;2023-01-19T12:01:54;0.90;;;0.90;;
18224;SDS011;9237;48.590;8.854;2023-01-19T12:04:25;0.80;;;0.80;;
18224;SDS011;9237;48.590;8.854;2023-01-19T12:06:56;1.00;;;1.00;;
18224;SDS011;9237;48.590;8.854;2023-01-19T12:09:29;1.00;;;1.00;;
18224;SDS011;9237;48.590;8.854;2023-01-19T12:12:01;1.00;;;1.00;;
18224;SDS011;9237;48.590;8.854;2023-01-19T12:14:33;0.90;;;0.90;;
18224;SDS011;9237;48.590;8.854;2023-01-19T12:17:04;0.93;;;0.93;;
18224;SDS011;9237;48.590;8.854;2023-01-19T12:19:40;1.00;;;1.00;;
18224;SDS011;9237;48.590;8.854;2023-01-19T12:22:10;0.90;;;0.90;;
18224;SDS011;9237;48.590;8.854;2023-01-19T12:24:42;0.90;;;0.90;;
18224;SDS011;9237;48.590;8.854;2023-01-19T12:27:15;1.00;;;1.00;;
18224;SDS011;9237;48.590;8.854;2023-01-19T12:29:46;1.00;;;1.00;;
18224;SDS011;9237;48.590;8.854;2023-01-19T12:32:30;0.80;;;0.80;;
18224;SDS011;9237;48.590;8.854;2023-01-19T12:35:00;1.00;;;1.00;;
18224;SDS011;9237;48.590;8.854;2023-01-19T12:37:33;0.90;;;0.90;;
18224;SDS011;9237;48.590;8.854;2023-01-19T12:40:03;0.80;;;0.80;;
18224;SDS011;9237;48.590;8.854;2023-01-19T12:42:46;1.00;;;1.00;;
18224;SDS011;9237;48.590;8.854;2023-01-19T12:45:21;0.90;;;0.90;;
18224;SDS011;9237;48.590;8.854;2023-01-19T12:47:50;1.00;;;1.00;;
18224;SDS011;9237;48.590;8.854;2023-01-19T12:50:19;1.00;;;1.00;;
18224;SDS011;9237;48.590;8.854;2023-01-19T12:52:50;0.93;;;0.93;;
18224;SDS011;9237;48.590;8.854;2023-01-19T12:55:21;0.90;;;0.90;;
18224;SDS011;9237;48.590;8.854;2023-01-19T12:57:55;0.93;;;0.93;;
18224;SDS011;9237;48.590;8.854;2023-01-19T13:00:27;1.00;;;1.00;;
18224;SDS011;9237;48.590;8.854;2023-01-19T13:02:57;0.87;;;0.87;;
18224;SDS011;9237;48.590;8.854;2023-01-19T13:08:27;0.93;;;0.93;;
18224;SDS011;9237;48.590;8.854;2023-01-19T13:11:17;1.00;;;1.00;;
18224;SDS011;9237;48.590;8.854;2023-01-19T13:19:59;0.97;;;0.97;;
18224;SDS011;9237;48.590;8.854;2023-01-19T13:25:49;1.00;;;1.00;;
18224;SDS011;9237;48.590;8.854;2023-01-19T13:28:29;0.97;;;0.97;;
18224;SDS011;9237;48.590;8.854;2023-01-19T13:31:00;1.00;;;1.00;;
18224;SDS011;9237;48.590;8.854;2023-01-19T13:33:31;0.90;;;0.90;;
18224;SDS011;9237;48.590;8.854;2023-01-19T13:36:13;1.00;;;1.00;;
18224;SDS011;9237;48.590;8.854;2023-01-19T13:38:47;1.00;;;1.00;;
18224;SDS011;9237;48.590;8.854;2023-01-19T13:41:18;1.00;;;1.00;;
18224;SDS011;9237;48.590;8.854;2023-01-19T13:43:48;1.00;;;1.00;;
18224;SDS011;9237;48.590;8.854;2023-01-19T13:46:20;0.90;;;0.90;;
18224;SDS011;9237;48.590;8.854;2023-01-19T13:48:51;1.00;;;1.00;;
18224;SDS011;9237;48.590;8.854;2023-01-19T13:51:20;0.90;;;0.90;;
18224;SDS011;9237;48.590;8.854;2023-01-19T13:53:54;0.90;;;0.90;;
18224;SDS011;9237;48.590;8.854;2023-01-19T13:56:23;0.90;;;0.90;;
18224;SDS011;9237;48.590;8.854;2023-01-19T13:58:59;1.00;;;1.00;;
18224;SDS011;9237;48.590;8.854;2023-01-19T14:01:29;1.00;;;1.00;;
18224;SDS011;9237;48.590;8.854;2023-01-19T14:03:57;0.97;;;0.97;;
18224;SDS011;9237;48.590;8.854;2023-01-19T14:06:30;1.00;;;1.00;;
18224;SDS011;9237;48.590;8.854;2023-01-19T14:09:06;1.00;;;1.00;;
18224;SDS011;9237;48.590;8.854;2023-01-19T14:11:35;1.00;;;1.00;;
18224;SDS011;9237;48.590;8.854;2023-01-19T14:14:03;0.80;;;0.80;;
18224;SDS011;9237;48.590;8.854;2023-01-19T14:16:30;1.00;;;1.00;;
18224;SDS011;9237;48.590;8.854;2023-01-19T14:19:00;0.93;;;0.93;;
18224;SDS011;9237;48.590;8.854;2023-01-19T14:21:36;0.90;;;0.90;;
18224;SDS011;9237;48.590;8.854;2023-01-19T14:24:08;0.93;;;0.93;;
18224;SDS011;9237;48.590;8.854;2023-01-19T14:26:43;1.00;;;1.00;;
18224;SDS011;9237;48.590;8.854;2023-01-19T14:29:13;0.90;;;0.90;;
18224;SDS011;9237;48.590;8.854;2023-01-19T14:31:43;1.00;;;1.00;;
18224;SDS011;9237;48.590;8.854;2023-01-19T14:34:29;1.00;;;1.00;;
18224;SDS011;9237;48.590;8.854;2023-01-19T14:37:01;1.00;;;1.00;;
18224;SDS011;9237;48.590;8.854;2023-01-19T14:39:30;1.00;;;1.00;;
18224;SDS011;9237;48.590;8.854;2023-01-19T14:42:01;1.07;;;1.07;;
18224;SDS011;9237;48.590;8.854;2023-01-19T14:44:32;1.00;;;1.00;;
18224;SDS011;9237;48.590;8.854;2023-01-19T14:47:01;1.00;;;1.00;;
18224;SDS011;9237;48.590;8.854;2023-01-19T14:49:30;1.00;;;1.00;;
18224;SDS011;9237;48.590;8.854;2023-01-19T14:51:58;1.00;;;1.00;;
18224;SDS011;9237;48.590;8.854;2023-01-19T14:54:28;1.00;;;1.00;;
18224;SDS011;9237;48.590;8.854;2023-01-19T14:57:01;1.00;;;1.00;;
18224;SDS011;9237;48.590;8.854;2023-01-19T14:59:28;1.10;;;1.10;;
18224;SDS011;9237;48.590;8.854;2023-01-19T15:01:55;0.93;;;0.93;;
18224;SDS011;9237;48.590;8.854;2023-01-19T15:04:23;0.90;;;0.90;;
18224;SDS011;9237;48.590;8.854;2023-01-19T15:06:50;1.10;;;1.10;;
18224;SDS011;9237;48.590;8.854;2023-01-19T15:09:17;1.00;;;1.00;;
18224;SDS011;9237;48.590;8.854;2023-01-19T15:11:45;1.00;;;1.00;;
18224;SDS011;9237;48.590;8.854;2023-01-19T15:14:15;1.00;;;1.00;;
18224;SDS011;9237;48.590;8.854;2023-01-19T15:16:44;1.00;;;1.00;;
18224;SDS011;9237;48.590;8.854;2023-01-19T15:19:11;1.00;;;1.00;;
18224;SDS011;9237;48.590;8.854;2023-01-19T15:21:39;1.00;;;1.00;;
18224;SDS011;9237;48.590;8.854;2023-01-19T15:24:06;1.00;;;1.00;;
18224;SDS011;9237;48.590;8.854;2023-01-19T15:26:35;1.00;;;1.00;;
18224;SDS011;9237;48.590;8.854;2023-01-19T15:29:08;1.10;;;1.10;;
18224;SDS011;9237;48.590;8.854;2023-01-19T15:31:44;1.00;;;1.00;;
18224;SDS011;9237;48.590;8.854;2023-01-19T15:34:11;1.00;;;1.00;;